sensor_id;sensor_type;location;lat;lon;timestamp;pressure;altitude;pressure_sealevel;temperature;humidity
43681;BME280;29281;50.356;30.894;2023-08-17T00:00:59;100716.59;;;23.13;84.73
43681;BME280;29281;50.356;30.894;2023-08-17T00:02:10;100711.20;;;23.05;85.50
43681;BME280;29281;50.356;30.894;2023-08-17T00:03:20;100713.75;;;23.06;85.55
43681;BME280;29281;50.356;30.894;2023-08-17T00:04:23;100711.03;;;22.98;86.08
43681;BME280;29281;50.356;30.894;2023-08-17T00:05:27;100712.22;;;22.96;86.36
43681;BME280;29281;50.356;30.894;2023-08-17T00:06:31;100711.54;;;22.94;86.52
43681;BME280;29281;50.356;30.894;2023-08-17T00:07:34;100713.23;;;22.95;86.46
43681;BME280;29281;50.356;30.894;2023-08-17T00:08:37;100716.78;;;22.95;86.50
43681;BME280;29281;50.356;30.894;2023-08-17T00:09:41;100706.30;;;22.92;86.47
43681;BME280;29281;50.356;30.894;2023-08-17T00:10:44;100712.75;;;22.91;86.80
43681;BME280;29281;50.356;30.894;2023-08-17T00:11:48;100709.36;;;22.81;87.17
43681;BME280;29281;50.356;30.894;2023-08-17T00:12:50;100715.80;;;22.80;87.37
43681;BME280;29281;50.356;30.894;2023-08-17T00:13:53;100716.80;;;22.79;87.54
43681;BME280;29281;50.356;30.894;2023-08-17T00:14:57;100713.42;;;22.77;87.81
43681;BME280;29281;50.356;30.894;2023-08-17T00:16:01;100709.02;;;22.76;87.70
43681;BME280;29281;50.356;30.894;2023-08-17T00:17:04;100713.23;;;22.70;88.04
43681;BME280;29281;50.356;30.894;2023-08-17T00:18:23;100716.61;;;22.64;88.47
43681;BME280;29281;50.356;30.894;2023-08-17T00:19:26;100714.75;;;22.65;88.72
43681;BME280;29281;50.356;30.894;2023-08-17T00:20:31;100711.55;;;22.69;88.34
43681;BME280;29281;50.356;30.894;2023-08-17T00:21:35;100715.27;;;22.68;88.38
43681;BME280;29281;50.356;30.894;2023-08-17T00:22:38;100714.09;;;22.71;88.26
43681;BME280;29281;50.356;30.894;2023-08-17T00:23:44;100712.56;;;22.68;88.43
43681;BME280;29281;50.356;30.894;2023-08-17T00:24:47;100717.30;;;22.66;88.77
43681;BME280;29281;50.356;30.894;2023-08-17T00:25:50;100715.08;;;22.62;88.86
43681;BME280;29281;50.356;30.894;2023-08-17T00:26:57;100713.75;;;22.58;89.21
43681;BME280;29281;50.356;30.894;2023-08-17T00:28:01;100721.20;;;22.56;89.49
43681;BME280;29281;50.356;30.894;2023-08-17T00:29:05;100713.08;;;22.56;89.60
43681;BME280;29281;50.356;30.894;2023-08-17T00:30:09;100710.34;;;22.48;89.89
43681;BME280;29281;50.356;30.894;2023-08-17T00:31:14;100713.42;;;22.44;90.18
43681;BME280;29281;50.356;30.894;2023-08-17T00:32:17;100713.73;;;22.50;90.15
43681;BME280;29281;50.356;30.894;2023-08-17T00:33:22;100719.83;;;22.52;89.89
43681;BME280;29281;50.356;30.894;2023-08-17T00:34:25;100716.95;;;22.53;90.05
43681;BME280;29281;50.356;30.894;2023-08-17T00:35:34;100712.39;;;22.54;89.90
43681;BME280;29281;50.356;30.894;2023-08-17T00:36:38;100709.52;;;22.39;90.67
43681;BME280;29281;50.356;30.894;2023-08-17T00:37:41;100710.69;;;22.36;90.87
43681;BME280;29281;50.356;30.894;2023-08-17T00:38:43;100712.05;;;22.40;90.87
43681;BME280;29281;50.356;30.894;2023-08-17T00:39:47;100711.03;;;22.50;90.19
43681;BME280;29281;50.356;30.894;2023-08-17T00:40:52;100709.52;;;22.39;90.77
43681;BME280;29281;50.356;30.894;2023-08-17T00:41:59;100710.03;;;22.42;90.52
43681;BME280;29281;50.356;30.894;2023-08-17T00:43:05;100718.48;;;22.39;90.86
43681;BME280;29281;50.356;30.894;2023-08-17T00:44:09;100713.06;;;22.39;91.13
43681;BME280;29281;50.356;30.894;2023-08-17T00:45:17;100716.78;;;22.38;90.96
43681;BME280;29281;50.356;30.894;2023-08-17T00:46:22;100708.16;;;22.27;91.54
43681;BME280;29281;50.356;30.894;2023-08-17T00:47:27;100708.16;;;22.27;91.79
43681;BME280;29281;50.356;30.894;2023-08-17T00:48:32;100711.87;;;22.26;91.87
43681;BME280;29281;50.356;30.894;2023-08-17T00:49:40;100709.33;;;22.24;92.04
43681;BME280;29281;50.356;30.894;2023-08-17T00:50:44;100708.97;;;22.19;92.55
43681;BME280;29281;50.356;30.894;2023-08-17T00:51:51;100722.17;;;22.14;92.82
43681;BME280;29281;50.356;30.894;2023-08-17T00:52:55;100718.09;;;22.18;92.81
43681;BME280;29281;50.356;30.894;2023-08-17T00:54:00;100709.81;;;22.20;92.62
43681;BME280;29281;50.356;30.894;2023-08-17T00:55:08;100713.86;;;22.16;92.74
43681;BME280;29281;50.356;30.894;2023-08-17T00:56:13;100716.77;;;22.14;92.96
43681;BME280;29281;50.356;30.894;2023-08-17T00:57:18;100715.75;;;22.23;92.21
43681;BME280;29281;50.356;30.894;2023-08-17T00:58:21;100718.95;;;22.19;92.81
43681;BME280;29281;50.356;30.894;2023-08-17T00:59:27;100711.52;;;22.13;93.01
43681;BME280;29281;50.356;30.894;2023-08-17T01:00:32;100704.93;;;22.15;92.93
43681;BME280;29281;50.356;30.894;2023-08-17T01:01:39;100718.78;;;22.20;92.64
43681;BME280;29281;50.356;30.894;2023-08-17T01:02:42;100718.78;;;22.12;93.05
43681;BME280;29281;50.356;30.894;2023-08-17T01:03:47;100707.28;;;22.10;93.04
43681;BME280;29281;50.356;30.894;2023-08-17T01:04:57;100714.02;;;22.06;93.52
43681;BME280;29281;50.356;30.894;2023-08-17T01:06:02;100712.16;;;22.06;93.62
43681;BME280;29281;50.356;30.894;2023-08-17T01:07:06;100711.16;;;22.07;93.34
43681;BME280;29281;50.356;30.894;2023-08-17T01:08:17;100713.17;;;22.05;93.66
43681;BME280;29281;50.356;30.894;2023-08-17T01:09:20;100721.98;;;22.07;93.56
43681;BME280;29281;50.356;30.894;2023-08-17T01:10:26;100720.28;;;22.06;93.51
43681;BME280;29281;50.356;30.894;2023-08-17T01:11:34;100711.80;;;22.01;94.04
43681;BME280;29281;50.356;30.894;2023-08-17T01:15:09;100715.72;;;22.07;93.49
43681;BME280;29281;50.356;30.894;2023-08-17T01:16:24;100706.56;;;22.00;93.94
43681;BME280;29281;50.356;30.894;2023-08-17T01:17:44;100707.38;;;21.92;94.33
43681;BME280;29281;50.356;30.894;2023-08-17T01:18:48;100704.98;;;21.81;95.22
43681;BME280;29281;50.356;30.894;2023-08-17T01:19:53;100708.53;;;21.82;95.12
43681;BME280;29281;50.356;30.894;2023-08-17T01:20:57;100718.34;;;21.83;95.18
43681;BME280;29281;50.356;30.894;2023-08-17T01:22:03;100723.22;;;21.79;95.50
43681;BME280;29281;50.356;30.894;2023-08-17T01:23:07;100715.11;;;21.79;95.72
43681;BME280;29281;50.356;30.894;2023-08-17T01:24:11;100710.19;;;21.74;95.95
43681;BME280;29281;50.356;30.894;2023-08-17T01:25:16;100707.31;;;21.76;95.90
43681;BME280;29281;50.356;30.894;2023-08-17T01:26:22;100711.72;;;21.77;96.03
43681;BME280;29281;50.356;30.894;2023-08-17T01:27:37;100711.55;;;21.79;95.88
43681;BME280;29281;50.356;30.894;2023-08-17T01:28:34;100702.07;;;21.74;95.97
43681;BME280;29281;50.356;30.894;2023-08-17T01:29:45;100714.42;;;21.77;95.77
43681;BME280;29281;50.356;30.894;2023-08-17T01:31:08;100713.05;;;21.73;96.19
43681;BME280;29281;50.356;30.894;2023-08-17T01:32:24;100715.06;;;21.71;96.29
43681;BME280;29281;50.356;30.894;2023-08-17T01:33:33;100711.03;;;21.75;95.96
43681;BME280;29281;50.356;30.894;2023-08-17T01:34:33;100720.30;;;21.72;96.07
43681;BME280;29281;50.356;30.894;2023-08-17T01:35:42;100723.02;;;21.72;96.33
43681;BME280;29281;50.356;30.894;2023-08-17T01:36:46;100718.44;;;21.65;96.90
43681;BME280;29281;50.356;30.894;2023-08-17T01:37:50;100721.98;;;21.65;96.92
43681;BME280;29281;50.356;30.894;2023-08-17T01:38:56;100724.70;;;21.73;96.47
43681;BME280;29281;50.356;30.894;2023-08-17T01:39:59;100715.75;;;21.73;96.25
43681;BME280;29281;50.356;30.894;2023-08-17T01:41:03;100721.98;;;21.65;97.04
43681;BME280;29281;50.356;30.894;2023-08-17T01:42:12;100718.28;;;21.66;96.84
43681;BME280;29281;50.356;30.894;2023-08-17T01:43:18;100712.82;;;21.58;97.19
43681;BME280;29281;50.356;30.894;2023-08-17T01:44:26;100721.78;;;21.59;97.41
43681;BME280;29281;50.356;30.894;2023-08-17T01:45:37;100731.42;;;21.61;97.37
43681;BME280;29281;50.356;30.894;2023-08-17T01:46:40;100716.90;;;21.62;97.30
43681;BME280;29281;50.356;30.894;2023-08-17T01:47:44;100723.63;;;21.58;97.63
43681;BME280;29281;50.356;30.894;2023-08-17T01:48:50;100719.23;;;21.57;97.77
43681;BME280;29281;50.356;30.894;2023-08-17T01:49:54;100717.91;;;21.61;97.62
43681;BME280;29281;50.356;30.894;2023-08-17T01:51:02;100718.55;;;21.55;98.02
43681;BME280;29281;50.356;30.894;2023-08-17T01:52:05;100718.36;;;21.49;98.43
43681;BME280;29281;50.356;30.894;2023-08-17T01:53:08;100714.13;;;21.46;98.60
43681;BME280;29281;50.356;30.894;2023-08-17T01:54:15;100716.83;;;21.46;98.79
43681;BME280;29281;50.356;30.894;2023-08-17T01:55:22;100713.33;;;21.54;98.55
43681;BME280;29281;50.356;30.894;2023-08-17T01:56:27;100719.22;;;21.49;98.44
43681;BME280;29281;50.356;30.894;2023-08-17T01:57:31;100712.59;;;21.44;98.91
43681;BME280;29281;50.356;30.894;2023-08-17T01:58:38;100718.84;;;21.44;98.85
43681;BME280;29281;50.356;30.894;2023-08-17T01:59:42;100720.91;;;21.50;98.48
43681;BME280;29281;50.356;30.894;2023-08-17T02:00:46;100715.66;;;21.49;98.71
43681;BME280;29281;50.356;30.894;2023-08-17T02:01:51;100724.09;;;21.46;98.65
43681;BME280;29281;50.356;30.894;2023-08-17T02:02:55;100715.66;;;21.49;98.71
43681;BME280;29281;50.356;30.894;2023-08-17T02:04:00;100724.30;;;21.52;98.42
43681;BME280;29281;50.356;30.894;2023-08-17T02:05:06;100725.63;;;21.48;98.54
43681;BME280;29281;50.356;30.894;2023-08-17T02:06:12;100723.39;;;21.44;98.99
43681;BME280;29281;50.356;30.894;2023-08-17T02:07:17;100722.39;;;21.45;99.01
43681;BME280;29281;50.356;30.894;2023-08-17T02:08:22;100721.23;;;21.47;98.90
43681;BME280;29281;50.356;30.894;2023-08-17T02:09:28;100724.41;;;21.43;99.07
43681;BME280;29281;50.356;30.894;2023-08-17T02:10:37;100722.86;;;21.40;99.33
43681;BME280;29281;50.356;30.894;2023-08-17T02:11:41;100721.02;;;21.40;99.24
43681;BME280;29281;50.356;30.894;2023-08-17T02:12:43;100721.86;;;21.41;99.18
43681;BME280;29281;50.356;30.894;2023-08-17T02:13:48;100724.72;;;21.39;99.34
43681;BME280;29281;50.356;30.894;2023-08-17T02:14:52;100723.22;;;21.37;99.61
43681;BME280;29281;50.356;30.894;2023-08-17T02:15:59;100725.70;;;21.30;100.00
43681;BME280;29281;50.356;30.894;2023-08-17T02:17:03;100722.20;;;21.38;99.47
43681;BME280;29281;50.356;30.894;2023-08-17T02:18:06;100726.92;;;21.36;99.50
43681;BME280;29281;50.356;30.894;2023-08-17T02:19:10;100730.31;;;21.38;99.32
43681;BME280;29281;50.356;30.894;2023-08-17T02:20:14;100732.10;;;21.29;100.00
43681;BME280;29281;50.356;30.894;2023-08-17T02:21:17;100726.52;;;21.23;100.00
43681;BME280;29281;50.356;30.894;2023-08-17T02:22:21;100727.55;;;21.30;100.00
43681;BME280;29281;50.356;30.894;2023-08-17T02:23:29;100729.72;;;21.26;100.00
43681;BME280;29281;50.356;30.894;2023-08-17T02:24:33;100727.02;;;21.26;100.00
43681;BME280;29281;50.356;30.894;2023-08-17T02:25:39;100731.57;;;21.26;100.00
43681;BME280;29281;50.356;30.894;2023-08-17T02:26:45;100724.31;;;21.26;100.00
43681;BME280;29281;50.356;30.894;2023-08-17T02:27:50;100723.47;;;21.26;100.00
43681;BME280;29281;50.356;30.894;2023-08-17T02:28:56;100720.92;;;21.24;100.00
43681;BME280;29281;50.356;30.894;2023-08-17T02:29:59;100729.53;;;21.20;100.00
43681;BME280;29281;50.356;30.894;2023-08-17T02:31:04;100729.66;;;21.18;100.00
43681;BME280;29281;50.356;30.894;2023-08-17T02:32:09;100734.52;;;21.15;100.00
43681;BME280;29281;50.356;30.894;2023-08-17T02:33:13;100736.78;;;21.19;100.00
43681;BME280;29281;50.356;30.894;2023-08-17T02:34:17;100727.11;;;21.17;100.00
43681;BME280;29281;50.356;30.894;2023-08-17T02:35:20;100729.66;;;21.18;100.00
43681;BME280;29281;50.356;30.894;2023-08-17T02:36:26;100737.12;;;21.24;100.00
43681;BME280;29281;50.356;30.894;2023-08-17T02:37:31;100726.83;;;21.20;100.00
43681;BME280;29281;50.356;30.894;2023-08-17T02:38:35;100733.36;;;21.17;100.00
43681;BME280;29281;50.356;30.894;2023-08-17T02:39:39;100728.37;;;21.22;100.00
43681;BME280;29281;50.356;30.894;2023-08-17T02:40:44;100735.36;;;21.15;100.00
43681;BME280;29281;50.356;30.894;2023-08-17T02:41:49;100736.91;;;21.18;100.00
43681;BME280;29281;50.356;30.894;2023-08-17T02:42:53;100731.81;;;21.15;100.00
43681;BME280;29281;50.356;30.894;2023-08-17T02:43:57;100737.75;;;21.18;100.00
43681;BME280;29281;50.356;30.894;2023-08-17T02:45:02;100727.54;;;21.04;100.00
43681;BME280;29281;50.356;30.894;2023-08-17T02:46:08;100733.29;;;21.09;100.00
43681;BME280;29281;50.356;30.894;2023-08-17T02:47:20;100730.23;;;21.04;100.00
43681;BME280;29281;50.356;30.894;2023-08-17T02:48:26;100730.39;;;21.02;100.00
43681;BME280;29281;50.356;30.894;2023-08-17T02:49:30;100732.25;;;21.02;100.00
43681;BME280;29281;50.356;30.894;2023-08-17T02:50:34;100736.64;;;21.03;100.00
43681;BME280;29281;50.356;30.894;2023-08-17T02:51:41;100731.09;;;21.04;100.00
43681;BME280;29281;50.356;30.894;2023-08-17T02:52:47;100734.09;;;21.01;100.00
43681;BME280;29281;50.356;30.894;2023-08-17T02:53:51;100738.03;;;21.07;100.00
43681;BME280;29281;50.356;30.894;2023-08-17T02:54:54;100734.09;;;21.01;100.00
43681;BME280;29281;50.356;30.894;2023-08-17T02:55:59;100736.72;;;20.93;100.00
43681;BME280;29281;50.356;30.894;2023-08-17T02:57:03;100737.06;;;20.90;100.00
43681;BME280;29281;50.356;30.894;2023-08-17T02:58:08;100738.27;;;20.96;100.00
43681;BME280;29281;50.356;30.894;2023-08-17T02:59:12;100730.32;;;20.94;100.00
43681;BME280;29281;50.356;30.894;2023-08-17T03:00:19;100732.83;;;20.88;100.00
43681;BME280;29281;50.356;30.894;2023-08-17T03:01:24;100729.58;;;20.84;100.00
43681;BME280;29281;50.356;30.894;2023-08-17T03:02:28;100737.69;;;20.84;100.00
43681;BME280;29281;50.356;30.894;2023-08-17T03:03:32;100736.14;;;20.82;100.00
43681;BME280;29281;50.356;30.894;2023-08-17T03:04:36;100739.07;;;20.88;100.00
43681;BME280;29281;50.356;30.894;2023-08-17T03:05:43;100737.30;;;20.79;100.00
43681;BME280;29281;50.356;30.894;2023-08-17T03:06:46;100738.30;;;20.78;100.00
43681;BME280;29281;50.356;30.894;2023-08-17T03:07:51;100738.14;;;20.80;100.00
43681;BME280;29281;50.356;30.894;2023-08-17T03:08:55;100739.14;;;20.79;100.00
43681;BME280;29281;50.356;30.894;2023-08-17T03:09:58;100741.00;;;20.78;100.00
43681;BME280;29281;50.356;30.894;2023-08-17T03:11:03;100736.22;;;20.90;100.00
43681;BME280;29281;50.356;30.894;2023-08-17T03:12:07;100739.64;;;20.74;100.00
43681;BME280;29281;50.356;30.894;2023-08-17T03:13:11;100740.09;;;20.69;100.00
43681;BME280;29281;50.356;30.894;2023-08-17T03:14:15;100746.39;;;20.78;100.00
43681;BME280;29281;50.356;30.894;2023-08-17T03:15:19;100738.48;;;20.77;100.00
43681;BME280;29281;50.356;30.894;2023-08-17T03:16:22;100739.84;;;20.81;100.00
43681;BME280;29281;50.356;30.894;2023-08-17T03:17:27;100744.78;;;20.85;100.00
43681;BME280;29281;50.356;30.894;2023-08-17T03:18:31;100738.79;;;20.74;100.00
43681;BME280;29281;50.356;30.894;2023-08-17T03:19:35;100740.95;;;20.70;100.00
43681;BME280;29281;50.356;30.894;2023-08-17T03:20:38;100741.53;;;20.82;100.00
43681;BME280;29281;50.356;30.894;2023-08-17T03:21:42;100737.98;;;20.81;100.00
43681;BME280;29281;50.356;30.894;2023-08-17T03:22:45;100736.68;;;20.85;100.00
43681;BME280;29281;50.356;30.894;2023-08-17T03:23:48;100740.69;;;20.81;100.00
43681;BME280;29281;50.356;30.894;2023-08-17T03:24:55;100739.53;;;20.84;100.00
43681;BME280;29281;50.356;30.894;2023-08-17T03:25:58;100745.39;;;20.79;100.00
43681;BME280;29281;50.356;30.894;2023-08-17T03:27:02;100736.98;;;20.82;100.00
43681;BME280;29281;50.356;30.894;2023-08-17T03:28:06;100737.63;;;20.76;100.00
43681;BME280;29281;50.356;30.894;2023-08-17T03:29:09;100739.64;;;20.74;100.00
43681;BME280;29281;50.356;30.894;2023-08-17T03:30:13;100733.59;;;20.80;100.00
43681;BME280;29281;50.356;30.894;2023-08-17T03:31:20;100740.69;;;20.81;100.00
43681;BME280;29281;50.356;30.894;2023-08-17T03:32:30;100740.08;;;20.87;100.00
43681;BME280;29281;50.356;30.894;2023-08-17T03:33:34;100742.62;;;20.89;100.00
43681;BME280;29281;50.356;30.894;2023-08-17T03:34:41;100743.08;;;20.84;100.00
43681;BME280;29281;50.356;30.894;2023-08-17T03:35:46;100737.30;;;20.79;100.00
43681;BME280;29281;50.356;30.894;2023-08-17T03:36:52;100738.84;;;20.82;100.00
43681;BME280;29281;50.356;30.894;2023-08-17T03:38:01;100747.17;;;20.88;100.00
43681;BME280;29281;50.356;30.894;2023-08-17T03:39:02;100742.77;;;20.87;100.00
43681;BME280;29281;50.356;30.894;2023-08-17T03:40:06;100740.12;;;20.95;100.00
43681;BME280;29281;50.356;30.894;2023-08-17T03:41:09;100748.17;;;20.87;100.00
43681;BME280;29281;50.356;30.894;2023-08-17T03:42:15;100743.74;;;21.04;100.00
43681;BME280;29281;50.356;30.894;2023-08-17T03:43:20;100742.97;;;20.94;100.00
43681;BME280;29281;50.356;30.894;2023-08-17T03:44:23;100742.89;;;21.03;100.00
43681;BME280;29281;50.356;30.894;2023-08-17T03:45:30;100734.98;;;21.10;100.00
43681;BME280;29281;50.356;30.894;2023-08-17T03:46:34;100746.02;;;21.17;100.00
43681;BME280;29281;50.356;30.894;2023-08-17T03:47:37;100751.27;;;21.18;99.97
43681;BME280;29281;50.356;30.894;2023-08-17T03:48:41;100743.16;;;21.18;99.80
43681;BME280;29281;50.356;30.894;2023-08-17T03:49:46;100741.28;;;21.36;98.52
43681;BME280;29281;50.356;30.894;2023-08-17T03:50:51;100743.38;;;21.51;97.47
43681;BME280;29281;50.356;30.894;2023-08-17T03:51:59;100740.67;;;21.51;97.30
43681;BME280;29281;50.356;30.894;2023-08-17T03:53:06;100747.62;;;21.53;97.21
43681;BME280;29281;50.356;30.894;2023-08-17T03:54:08;100746.02;;;21.43;98.11
43681;BME280;29281;50.356;30.894;2023-08-17T03:55:17;100752.55;;;21.32;98.53
43681;BME280;29281;50.356;30.894;2023-08-17T03:56:20;100742.78;;;21.39;98.33
43681;BME280;29281;50.356;30.894;2023-08-17T03:57:23;100743.47;;;21.41;98.14
43681;BME280;29281;50.356;30.894;2023-08-17T03:58:28;100745.39;;;21.49;97.75
43681;BME280;29281;50.356;30.894;2023-08-17T03:59:33;100745.57;;;21.55;97.31
43681;BME280;29281;50.356;30.894;2023-08-17T04:00:38;100740.98;;;21.48;97.90
43681;BME280;29281;50.356;30.894;2023-08-17T04:01:44;100746.52;;;21.38;98.23
43681;BME280;29281;50.356;30.894;2023-08-17T04:02:49;100742.78;;;21.39;98.09
43681;BME280;29281;50.356;30.894;2023-08-17T04:03:54;100745.33;;;21.40;98.23
43681;BME280;29281;50.356;30.894;2023-08-17T04:04:58;100742.13;;;21.37;98.79
43681;BME280;29281;50.356;30.894;2023-08-17T04:07:25;100740.43;;;21.36;98.75
43681;BME280;29281;50.356;30.894;2023-08-17T04:08:29;100743.16;;;21.44;98.54
43681;BME280;29281;50.356;30.894;2023-08-17T04:09:37;100741.17;;;21.54;97.96
43681;BME280;29281;50.356;30.894;2023-08-17T04:10:40;100743.23;;;21.60;97.16
43681;BME280;29281;50.356;30.894;2023-08-17T04:11:44;100739.83;;;21.50;97.87
43681;BME280;29281;50.356;30.894;2023-08-17T04:12:47;100742.53;;;21.50;98.37
43681;BME280;29281;50.356;30.894;2023-08-17T04:13:53;100742.84;;;21.47;98.49
43681;BME280;29281;50.356;30.894;2023-08-17T04:14:58;100739.30;;;21.47;98.34
43681;BME280;29281;50.356;30.894;2023-08-17T04:16:07;100741.52;;;21.51;97.87
43681;BME280;29281;50.356;30.894;2023-08-17T04:17:11;100750.34;;;21.61;97.35
43681;BME280;29281;50.356;30.894;2023-08-17T04:18:15;100747.48;;;21.63;97.37
43681;BME280;29281;50.356;30.894;2023-08-17T04:19:18;100749.55;;;21.69;96.84
43681;BME280;29281;50.356;30.894;2023-08-17T04:20:22;100759.52;;;21.68;97.02
43681;BME280;29281;50.356;30.894;2023-08-17T04:21:26;100750.20;;;21.71;96.99
43681;BME280;29281;50.356;30.894;2023-08-17T04:22:31;100759.84;;;21.73;96.80
43681;BME280;29281;50.356;30.894;2023-08-17T04:23:36;100744.17;;;21.85;96.10
43681;BME280;29281;50.356;30.894;2023-08-17T04:24:39;100744.05;;;21.95;95.27
43681;BME280;29281;50.356;30.894;2023-08-17T04:25:43;100743.05;;;21.96;95.32
43681;BME280;29281;50.356;30.894;2023-08-17T04:26:47;100752.37;;;22.01;94.57
43681;BME280;29281;50.356;30.894;2023-08-17T04:27:54;100749.34;;;22.04;94.17
43681;BME280;29281;50.356;30.894;2023-08-17T04:28:59;100750.92;;;22.15;93.88
43681;BME280;29281;50.356;30.894;2023-08-17T04:30:05;100758.87;;;22.33;92.54
43681;BME280;29281;50.356;30.894;2023-08-17T04:31:10;100752.97;;;22.37;92.13
43681;BME280;29281;50.356;30.894;2023-08-17T04:32:15;100759.44;;;22.61;91.26
43681;BME280;29281;50.356;30.894;2023-08-17T04:33:21;100752.02;;;22.87;89.05
43681;BME280;29281;50.356;30.894;2023-08-17T04:34:27;100754.48;;;23.29;85.97
43681;BME280;29281;50.356;30.894;2023-08-17T04:35:31;100757.71;;;23.25;85.74
43681;BME280;29281;50.356;30.894;2023-08-17T04:36:37;100756.36;;;23.29;85.34
43681;BME280;29281;50.356;30.894;2023-08-17T04:37:40;100759.41;;;23.26;84.76
43681;BME280;29281;50.356;30.894;2023-08-17T04:38:45;100768.24;;;23.20;85.44
43681;BME280;29281;50.356;30.894;2023-08-17T04:39:54;100761.09;;;23.35;84.75
43681;BME280;29281;50.356;30.894;2023-08-17T04:40:59;100758.38;;;23.51;83.80
43681;BME280;29281;50.356;30.894;2023-08-17T04:42:04;100763.24;;;23.64;82.98
43681;BME280;29281;50.356;30.894;2023-08-17T04:43:13;100757.48;;;23.59;83.01
43681;BME280;29281;50.356;30.894;2023-08-17T04:44:16;100766.66;;;23.41;83.85
43681;BME280;29281;50.356;30.894;2023-08-17T04:45:22;100764.11;;;23.40;84.18
43681;BME280;29281;50.356;30.894;2023-08-17T04:46:33;100762.96;;;23.26;84.71
43681;BME280;29281;50.356;30.894;2023-08-17T04:47:39;100764.70;;;23.03;86.61
43681;BME280;29281;50.356;30.894;2023-08-17T04:48:43;100763.84;;;23.19;86.06
43681;BME280;29281;50.356;30.894;2023-08-17T04:49:47;100764.14;;;23.24;85.71
43681;BME280;29281;50.356;30.894;2023-08-17T04:50:50;100763.33;;;23.15;85.78
43681;BME280;29281;50.356;30.894;2023-08-17T04:51:53;100763.84;;;23.19;86.43
43681;BME280;29281;50.356;30.894;2023-08-17T04:52:57;100755.98;;;23.40;85.43
43681;BME280;29281;50.356;30.894;2023-08-17T04:54:00;100757.50;;;23.42;85.48
43681;BME280;29281;50.356;30.894;2023-08-17T04:55:04;100761.89;;;23.60;84.46
43681;BME280;29281;50.356;30.894;2023-08-17T04:56:07;100761.98;;;23.82;83.53
43681;BME280;29281;50.356;30.894;2023-08-17T04:57:10;100761.01;;;24.06;81.79
43681;BME280;29281;50.356;30.894;2023-08-17T04:58:15;100758.43;;;24.67;78.17
43681;BME280;29281;50.356;30.894;2023-08-17T04:59:22;100760.22;;;25.35;73.22
43681;BME280;29281;50.356;30.894;2023-08-17T05:00:25;100766.91;;;25.62;72.12
43681;BME280;29281;50.356;30.894;2023-08-17T05:01:31;100774.30;;;25.97;70.23
43681;BME280;29281;50.356;30.894;2023-08-17T05:02:40;100777.53;;;27.28;65.19
43681;BME280;29281;50.356;30.894;2023-08-17T05:03:44;100778.23;;;29.26;58.00
43681;BME280;29281;50.356;30.894;2023-08-17T05:04:49;100796.06;;;30.33;53.36
43681;BME280;29281;50.356;30.894;2023-08-17T05:05:53;100798.39;;;31.48;50.44
43681;BME280;29281;50.356;30.894;2023-08-17T05:06:59;100816.69;;;32.64;46.75
43681;BME280;29281;50.356;30.894;2023-08-17T05:08:03;100820.27;;;32.95;45.42
43681;BME280;29281;50.356;30.894;2023-08-17T05:09:08;100828.02;;;33.39;43.94
43681;BME280;29281;50.356;30.894;2023-08-17T05:10:14;100823.46;;;33.80;42.83
43681;BME280;29281;50.356;30.894;2023-08-17T05:11:19;100829.39;;;34.12;41.98
43681;BME280;29281;50.356;30.894;2023-08-17T05:12:24;100836.22;;;34.09;41.37
43681;BME280;29281;50.356;30.894;2023-08-17T05:13:28;100838.61;;;34.17;40.77
43681;BME280;29281;50.356;30.894;2023-08-17T05:14:34;100841.64;;;35.01;39.45
43681;BME280;29281;50.356;30.894;2023-08-17T05:15:37;100851.14;;;35.39;38.19
43681;BME280;29281;50.356;30.894;2023-08-17T05:16:50;100858.58;;;35.55;37.58
43681;BME280;29281;50.356;30.894;2023-08-17T05:17:53;100849.88;;;35.30;37.92
43681;BME280;29281;50.356;30.894;2023-08-17T05:19:03;100856.48;;;35.12;38.06
43681;BME280;29281;50.356;30.894;2023-08-17T05:20:10;100852.13;;;35.49;37.61
43681;BME280;29281;50.356;30.894;2023-08-17T05:21:17;100850.42;;;34.41;39.93
43681;BME280;29281;50.356;30.894;2023-08-17T05:22:20;100852.19;;;32.84;42.94
43681;BME280;29281;50.356;30.894;2023-08-17T05:23:26;100843.69;;;31.83;45.96
43681;BME280;29281;50.356;30.894;2023-08-17T05:24:32;100835.46;;;31.08;47.34
43681;BME280;29281;50.356;30.894;2023-08-17T05:25:36;100847.20;;;30.52;48.52
43681;BME280;29281;50.356;30.894;2023-08-17T05:26:39;100829.97;;;29.67;50.81
43681;BME280;29281;50.356;30.894;2023-08-17T05:27:45;100829.36;;;29.52;52.12
43681;BME280;29281;50.356;30.894;2023-08-17T05:28:50;100827.05;;;29.49;52.35
43681;BME280;29281;50.356;30.894;2023-08-17T05:29:55;100825.94;;;29.83;51.69
43681;BME280;29281;50.356;30.894;2023-08-17T05:31:05;100831.45;;;29.77;52.17
43681;BME280;29281;50.356;30.894;2023-08-17T05:32:10;100828.95;;;29.16;52.53
43681;BME280;29281;50.356;30.894;2023-08-17T05:33:14;100819.02;;;28.88;54.23
43681;BME280;29281;50.356;30.894;2023-08-17T05:34:18;100819.66;;;28.90;54.59
43681;BME280;29281;50.356;30.894;2023-08-17T05:35:23;100815.61;;;28.66;55.14
43681;BME280;29281;50.356;30.894;2023-08-17T05:36:28;100818.95;;;28.55;55.37
43681;BME280;29281;50.356;30.894;2023-08-17T05:37:41;100812.34;;;28.30;55.69
43681;BME280;29281;50.356;30.894;2023-08-17T05:38:46;100817.23;;;28.00;56.84
43681;BME280;29281;50.356;30.894;2023-08-17T05:39:51;100815.03;;;27.82;57.50